Time;durP1;ratioP1;P1;durP2;ratioP2;P2;SDS_P1;SDS_P2;PMS_P1;PMS_P2;Temp;Humidity;BMP_temperature;BMP_pressure;BME280_temperature;BME280_humidity;BME280_pressure;Samples;Min_cycle;Max_cycle;Signal;HPM_P1;HPM_P2
2023/05/19 00:02:04;;;;;;;;;;;10.70;99.90;;;;;;5068403;28;19928;-64
2023/05/19 00:04:32;;;;;;;;;;;10.70;99.90;;;;;;5063773;28;20392;-64
2023/05/19 00:07:04;;;;;;;;;;;10.60;99.90;;;;;;5067826;28;20015;-65
2023/05/19 00:09:36;;;;;;;;;;;10.60;99.90;;;;;;5060005;28;20515;-64
2023/05/19 00:12:03;;;;;;;;;;;10.60;99.90;;;;;;5058762;28;19932;-65
2023/05/19 00:14:30;;;;;;;;;;;10.60;99.90;;;;;;5060228;28;19924;-65
2023/05/19 00:17:02;;;;;;;;;;;10.60;99.90;;;;;;5064007;28;19936;-65
2023/05/19 00:19:34;;;;;;;;;;;10.60;99.90;;;;;;5063977;28;19924;-65
2023/05/19 00:22:01;;;;;;;;;;;10.50;99.90;;;;;;5063956;28;20035;-64
2023/05/19 00:24:33;;;;;;;;;;;10.50;99.90;;;;;;5059110;28;20027;-65
2023/05/19 00:27:05;;;;;;;;;;;10.50;99.90;;;;;;5057679;28;19932;-64
2023/05/19 00:29:37;;;;;;;;;;;10.50;99.90;;;;;;5068541;28;19951;-65
2023/05/19 00:32:09;;;;;;;;;;;10.50;99.90;;;;;;5070528;28;20327;-65
2023/05/19 00:34:41;;;;;;;;;;;10.50;99.90;;;;;;5056329;28;19935;-65
2023/05/19 00:37:13;;;;;;;;;;;10.50;99.90;;;;;;5061242;28;19931;-64
2023/05/19 00:39:45;;;;;;;;;;;10.50;99.90;;;;;;5065290;28;19946;-65
2023/05/19 00:42:17;;;;;;;;;;;10.50;99.90;;;;;;5064110;28;19929;-65
2023/05/19 00:44:49;;;;;;;;;;;10.50;99.90;;;;;;5079093;28;20027;-64
2023/05/19 00:47:20;;;;;;;;;;;10.50;99.90;;;;;;5059965;28;19949;-65
2023/05/19 00:49:52;;;;;;;;;;;10.40;99.90;;;;;;5057613;28;19924;-64
2023/05/19 00:52:24;;;;;;;;;;;10.40;99.90;;;;;;5054339;28;19940;-65
2023/05/19 00:54:56;;;;;;;;;;;10.40;99.90;;;;;;5050797;28;19932;-64
2023/05/19 00:57:28;;;;;;;;;;;10.40;99.90;;;;;;5053082;28;19936;-64
2023/05/19 00:59:59;;;;;;;;;;;10.30;99.90;;;;;;5061031;28;20005;-64
2023/05/19 01:02:31;;;;;;;;;;;10.30;99.90;;;;;;5065804;28;20320;-64
2023/05/19 01:05:05;;;;;;;;;;;10.30;99.90;;;;;;5072530;28;19928;-65
2023/05/19 01:07:37;;;;;;;;;;;10.30;99.90;;;;;;5061012;28;19928;-65
2023/05/19 01:10:09;;;;;;;;;;;10.30;99.90;;;;;;5058475;28;19982;-64
2023/05/19 01:12:41;;;;;;;;;;;10.30;99.90;;;;;;5057889;28;19928;-64
2023/05/19 01:15:14;;;;;;;;;;;10.30;99.90;;;;;;5059843;28;20313;-65
2023/05/19 01:18:07;;;;;;;;;;;10.20;99.90;;;;;;5059137;28;19934;-64
2023/05/19 01:20:37;;;;;;;;;;;10.20;99.90;;;;;;5046684;28;19928;-64
2023/05/19 01:23:07;;;;;;;;;;;10.20;99.90;;;;;;5062243;28;20400;-65
2023/05/19 01:25:58;;;;;;;;;;;10.20;99.90;;;;;;5048057;28;19974;-64
2023/05/19 01:28:45;;;;;;;;;;;10.20;99.90;;;;;;5059196;28;19935;-64
2023/05/19 01:31:20;;;;;;;;;;;10.20;99.90;;;;;;5062088;28;19951;-65
2023/05/19 01:33:52;;;;;;;;;;;10.20;99.90;;;;;;5058516;28;19925;-64
2023/05/19 01:36:24;;;;;;;;;;;10.20;99.90;;;;;;5057171;28;19932;-64
2023/05/19 01:38:57;;;;;;;;;;;10.20;99.90;;;;;;5054295;28;20011;-64
2023/05/19 01:41:29;;;;;;;;;;;10.20;99.90;;;;;;5057482;28;19986;-64
2023/05/19 01:44:01;;;;;;;;;;;10.20;99.90;;;;;;5061299;28;19935;-64
2023/05/19 01:46:33;;;;;;;;;;;10.10;99.90;;;;;;5062462;28;20389;-64
2023/05/19 01:49:05;;;;;;;;;;;10.10;99.90;;;;;;5052306;28;19929;-64
2023/05/19 01:51:32;;;;;;;;;;;10.10;99.90;;;;;;5060331;28;20386;-65
2023/05/19 01:54:04;;;;;;;;;;;10.10;99.90;;;;;;5069418;28;19936;-65
2023/05/19 01:56:56;;;;;;;;;;;10.10;99.90;;;;;;5063185;28;20447;-65
2023/05/19 01:59:30;;;;;;;;;;;10.10;99.90;;;;;;5024834;28;19929;-64
2023/05/19 02:01:59;;;;;;;;;;;10.10;99.90;;;;;;5066562;28;20459;-64
2023/05/19 02:04:40;;;;;;;;;;;10.10;99.90;;;;;;5064068;28;19924;-64
2023/05/19 02:07:16;;;;;;;;;;;10.10;99.90;;;;;;5049664;28;19924;-64
2023/05/19 02:09:53;;;;;;;;;;;10.10;99.90;;;;;;5058930;28;20404;-64
2023/05/19 02:12:24;;;;;;;;;;;10.10;99.90;;;;;;5065691;28;20440;-64
2023/05/19 02:14:59;;;;;;;;;;;10.10;99.90;;;;;;5061571;28;19983;-64
2023/05/19 02:17:34;;;;;;;;;;;10.00;99.90;;;;;;5059245;28;19964;-64
2023/05/19 02:20:03;;;;;;;;;;;10.00;99.90;;;;;;5066774;28;20343;-64
2023/05/19 02:22:30;;;;;;;;;;;9.90;99.90;;;;;;5061528;28;19925;-64
2023/05/19 02:24:57;;;;;;;;;;;9.90;99.90;;;;;;5063309;28;19954;-64
2023/05/19 02:27:32;;;;;;;;;;;9.90;99.90;;;;;;5052690;28;19925;-65
2023/05/19 02:30:04;;;;;;;;;;;9.90;99.90;;;;;;5064275;28;20357;-65
2023/05/19 02:32:36;;;;;;;;;;;9.90;99.90;;;;;;5062152;28;19924;-65
2023/05/19 02:35:08;;;;;;;;;;;9.90;99.90;;;;;;5070807;28;19940;-65
2023/05/19 02:37:40;;;;;;;;;;;9.80;99.90;;;;;;5060067;28;19971;-65
2023/05/19 02:40:08;;;;;;;;;;;9.80;99.90;;;;;;5070654;28;19924;-65
2023/05/19 02:42:39;;;;;;;;;;;9.80;99.90;;;;;;5062322;28;19925;-65
2023/05/19 02:45:11;;;;;;;;;;;9.80;99.90;;;;;;5066878;28;20315;-64
2023/05/19 02:47:43;;;;;;;;;;;9.80;99.90;;;;;;5047639;28;20043;-64
2023/05/19 02:50:14;;;;;;;;;;;9.80;99.90;;;;;;5065957;28;19931;-64
2023/05/19 02:52:46;;;;;;;;;;;9.80;99.90;;;;;;5065432;28;19929;-65
2023/05/19 02:55:15;;;;;;;;;;;9.80;99.90;;;;;;5069845;28;19924;-65
2023/05/19 02:57:47;;;;;;;;;;;9.80;99.90;;;;;;5061254;28;19929;-64
2023/05/19 03:00:19;;;;;;;;;;;9.80;99.90;;;;;;5068641;28;19999;-64
2023/05/19 03:02:46;;;;;;;;;;;9.80;99.90;;;;;;5069801;28;19990;-65
2023/05/19 03:05:18;;;;;;;;;;;9.80;99.90;;;;;;5079387;28;19925;-64
2023/05/19 03:07:50;;;;;;;;;;;9.80;99.90;;;;;;5061100;28;19934;-65
2023/05/19 03:10:22;;;;;;;;;;;9.80;99.90;;;;;;5082538;28;19952;-65
2023/05/19 03:12:53;;;;;;;;;;;9.80;99.90;;;;;;5064071;28;20476;-65
2023/05/19 03:15:25;;;;;;;;;;;9.80;99.90;;;;;;5047452;28;19929;-64
2023/05/19 03:17:57;;;;;;;;;;;9.80;99.90;;;;;;5071126;28;19943;-64
2023/05/19 03:20:32;;;;;;;;;;;9.80;99.90;;;;;;5075236;28;19936;-64
2023/05/19 03:23:03;;;;;;;;;;;9.80;99.90;;;;;;5051911;28;19935;-64
2023/05/19 03:25:35;;;;;;;;;;;9.70;99.90;;;;;;5056343;28;20043;-64
2023/05/19 03:28:02;;;;;;;;;;;9.70;99.90;;;;;;5061276;28;19936;-64
2023/05/19 03:30:34;;;;;;;;;;;9.70;99.90;;;;;;5044988;28;19985;-65
2023/05/19 03:33:12;;;;;;;;;;;9.70;99.90;;;;;;5053893;28;19925;-65
2023/05/19 03:35:44;;;;;;;;;;;9.70;99.90;;;;;;5046774;28;20409;-64
2023/05/19 03:38:16;;;;;;;;;;;9.70;99.90;;;;;;5075769;28;20367;-64
2023/05/19 03:40:54;;;;;;;;;;;9.70;99.90;;;;;;5063373;28;20400;-65
2023/05/19 03:43:25;;;;;;;;;;;9.70;99.90;;;;;;5049386;28;19928;-65
2023/05/19 03:46:01;;;;;;;;;;;9.70;99.90;;;;;;5058553;28;20007;-65
2023/05/19 03:48:48;;;;;;;;;;;9.70;99.90;;;;;;5057283;28;19975;-66
2023/05/19 03:51:15;;;;;;;;;;;9.70;99.90;;;;;;5055877;28;20379;-64
2023/05/19 03:53:49;;;;;;;;;;;9.70;99.90;;;;;;5044180;28;20347;-64
2023/05/19 03:56:22;;;;;;;;;;;9.70;99.90;;;;;;5069077;28;19947;-65
2023/05/19 03:58:54;;;;;;;;;;;9.70;99.90;;;;;;5067367;28;20576;-64
2023/05/19 04:01:26;;;;;;;;;;;9.70;99.90;;;;;;5064598;28;20021;-64
2023/05/19 04:03:58;;;;;;;;;;;9.70;99.90;;;;;;5066127;28;19947;-65
2023/05/19 04:06:30;;;;;;;;;;;9.70;99.90;;;;;;5059734;28;19924;-66
2023/05/19 04:08:58;;;;;;;;;;;9.80;99.90;;;;;;5066141;28;19946;-64
2023/05/19 04:11:30;;;;;;;;;;;9.70;99.90;;;;;;5056483;28;19968;-64
2023/05/19 04:13:56;;;;;;;;;;;9.80;99.90;;;;;;5058969;28;19924;-65
2023/05/19 04:16:23;;;;;;;;;;;9.80;99.90;;;;;;5060929;28;19975;-64
2023/05/19 04:18:55;;;;;;;;;;;9.80;99.90;;;;;;5064749;28;19930;-64
2023/05/19 04:21:23;;;;;;;;;;;9.80;99.90;;;;;;5067544;28;19928;-64
2023/05/19 04:23:50;;;;;;;;;;;9.90;99.90;;;;;;5069428;28;20016;-64
2023/05/19 04:26:23;;;;;;;;;;;9.90;99.90;;;;;;5047699;28;19975;-64
2023/05/19 04:28:55;;;;;;;;;;;9.90;99.90;;;;;;5060477;28;19924;-63
2023/05/19 04:31:23;;;;;;;;;;;9.90;99.90;;;;;;5072060;28;20041;-64
2023/05/19 04:33:55;;;;;;;;;;;9.90;99.90;;;;;;5057516;28;20015;-64
2023/05/19 04:36:26;;;;;;;;;;;10.00;99.90;;;;;;5046789;28;19925;-64
2023/05/19 04:39:01;;;;;;;;;;;10.00;99.90;;;;;;5066346;28;19924;-64
2023/05/19 04:41:33;;;;;;;;;;;10.00;99.90;;;;;;5062486;28;20565;-64
2023/05/19 04:44:08;;;;;;;;;;;10.00;99.90;;;;;;5052775;28;19928;-65
2023/05/19 04:46:44;;;;;;;;;;;10.00;99.90;;;;;;5050727;28;19993;-64
2023/05/19 04:49:12;;;;;;;;;;;10.10;99.90;;;;;;5050605;28;20449;-64
2023/05/19 04:51:44;;;;;;;;;;;10.10;99.90;;;;;;5065403;28;19979;-64
2023/05/19 04:54:20;;;;;;;;;;;10.30;99.90;;;;;;5058845;28;19929;-64
2023/05/19 04:56:52;;;;;;;;;;;10.30;99.90;;;;;;5067161;28;20024;-64
2023/05/19 04:59:20;;;;;;;;;;;10.30;99.90;;;;;;5058356;28;20282;-64
2023/05/19 05:01:52;;;;;;;;;;;10.30;99.90;;;;;;5068959;28;19970;-64
2023/05/19 05:04:26;;;;;;;;;;;10.30;99.90;;;;;;5060770;28;19929;-64
2023/05/19 05:06:57;;;;;;;;;;;10.30;99.90;;;;;;5068706;28;19928;-64
2023/05/19 05:09:29;;;;;;;;;;;10.30;99.90;;;;;;5079398;28;20023;-64
2023/05/19 05:11:58;;;;;;;;;;;10.30;99.90;;;;;;5068061;28;19924;-64
2023/05/19 05:14:30;;;;;;;;;;;10.40;99.90;;;;;;5074330;28;20407;-64
2023/05/19 05:17:02;;;;;;;;;;;10.40;99.90;;;;;;5064888;28;19955;-64
2023/05/19 05:19:34;;;;;;;;;;;10.40;99.90;;;;;;5047399;28;19960;-64
2023/05/19 05:22:06;;;;;;;;;;;10.40;99.90;;;;;;5062834;28;20483;-64
2023/05/19 05:24:36;;;;;;;;;;;10.40;99.90;;;;;;5067130;28;19928;-64
2023/05/19 05:27:09;;;;;;;;;;;10.40;99.90;;;;;;5048861;28;19924;-64
2023/05/19 05:29:41;;;;;;;;;;;10.50;99.90;;;;;;5046329;28;20027;-64
2023/05/19 05:32:15;;;;;;;;;;;10.50;99.90;;;;;;5063205;28;20304;-64
2023/05/19 05:34:42;;;;;;;;;;;10.50;99.90;;;;;;5064020;28;20461;-64
2023/05/19 05:37:15;;;;;;;;;;;10.60;99.90;;;;;;5064123;28;19929;-64
2023/05/19 05:39:46;;;;;;;;;;;10.60;99.90;;;;;;5063462;28;20435;-64
2023/05/19 05:42:19;;;;;;;;;;;10.60;99.90;;;;;;5044750;28;19925;-64
2023/05/19 05:44:47;;;;;;;;;;;10.60;99.90;;;;;;5048217;28;19925;-64
2023/05/19 05:47:19;;;;;;;;;;;10.70;99.90;;;;;;5064721;28;19928;-64
2023/05/19 05:49:51;;;;;;;;;;;10.70;99.90;;;;;;5062748;28;19933;-64
2023/05/19 05:52:20;;;;;;;;;;;10.80;99.90;;;;;;5067868;28;19932;-64
2023/05/19 05:54:51;;;;;;;;;;;10.90;99.90;;;;;;5058861;28;19932;-64
2023/05/19 05:57:23;;;;;;;;;;;11.00;99.90;;;;;;5066686;28;19933;-65
2023/05/19 05:59:55;;;;;;;;;;;11.00;99.90;;;;;;5075126;28;19928;-64
2023/05/19 06:02:28;;;;;;;;;;;11.10;99.90;;;;;;5077375;28;19947;-64
2023/05/19 06:05:01;;;;;;;;;;;11.20;99.90;;;;;;5064636;28;19939;-64
2023/05/19 06:07:28;;;;;;;;;;;11.20;99.90;;;;;;5060431;28;19925;-64
2023/05/19 06:10:00;;;;;;;;;;;11.30;99.90;;;;;;5068780;28;19964;-64
2023/05/19 06:12:33;;;;;;;;;;;11.20;99.90;;;;;;5064905;28;19925;-64
2023/05/19 06:15:06;;;;;;;;;;;11.20;99.90;;;;;;5064242;28;19933;-64
2023/05/19 06:17:38;;;;;;;;;;;11.30;99.90;;;;;;5062749;28;20320;-64
2023/05/19 06:20:12;;;;;;;;;;;11.30;99.90;;;;;;5068083;28;19924;-64
2023/05/19 06:22:43;;;;;;;;;;;11.40;99.90;;;;;;5064666;28;20469;-64
2023/05/19 06:25:11;;;;;;;;;;;11.40;99.90;;;;;;5070963;28;20776;-64
2023/05/19 06:27:43;;;;;;;;;;;11.50;99.90;;;;;;5061780;28;20296;-64
2023/05/19 06:30:10;;;;;;;;;;;11.50;99.90;;;;;;5066840;28;21338;-64
2023/05/19 06:32:55;;;;;;;;;;;11.50;99.90;;;;;;5066309;28;20281;-64
2023/05/19 06:35:23;;;;;;;;;;;11.50;99.90;;;;;;5055420;28;19963;-64
2023/05/19 06:37:55;;;;;;;;;;;11.60;99.90;;;;;;5070388;28;19971;-64
2023/05/19 06:40:28;;;;;;;;;;;11.60;99.90;;;;;;5077979;28;20583;-65
2023/05/19 06:42:55;;;;;;;;;;;11.60;99.90;;;;;;5067491;28;19925;-64
2023/05/19 06:45:39;;;;;;;;;;;11.70;99.90;;;;;;5075498;28;19929;-64
2023/05/19 06:48:11;;;;;;;;;;;11.70;99.90;;;;;;5065514;28;19931;-64
2023/05/19 06:50:43;;;;;;;;;;;11.70;99.90;;;;;;5069780;28;19929;-64
2023/05/19 06:53:15;;;;;;;;;;;11.70;99.90;;;;;;5050081;28;19936;-64
2023/05/19 06:55:51;;;;;;;;;;;11.80;99.90;;;;;;5069793;28;20338;-64
2023/05/19 06:58:25;;;;;;;;;;;11.80;99.90;;;;;;5063316;28;20015;-64
2023/05/19 07:00:58;;;;;;;;;;;11.90;99.90;;;;;;5069291;28;19928;-64
2023/05/19 07:03:35;;;;;;;;;;;12.00;99.90;;;;;;5077187;28;19982;-64
2023/05/19 07:06:07;;;;;;;;;;;12.10;99.90;;;;;;5057949;28;19924;-65
2023/05/19 07:08:40;;;;;;;;;;;12.20;99.90;;;;;;5058455;28;19949;-64
2023/05/19 07:11:12;;;;;;;;;;;12.30;99.90;;;;;;5051986;28;19925;-64
2023/05/19 07:13:43;;;;;;;;;;;12.40;99.90;;;;;;5045481;28;19928;-64
2023/05/19 07:16:13;;;;;;;;;;;12.50;99.90;;;;;;5069685;28;19924;-64
2023/05/19 07:18:44;;;;;;;;;;;12.60;99.90;;;;;;5063184;28;20440;-64
2023/05/19 07:21:16;;;;;;;;;;;12.60;99.90;;;;;;5064028;28;20412;-64
2023/05/19 07:23:49;;;;;;;;;;;12.60;99.90;;;;;;5067240;28;20450;-64
2023/05/19 07:26:21;;;;;;;;;;;12.60;99.90;;;;;;5069277;28;20023;-64
2023/05/19 07:28:53;;;;;;;;;;;12.60;99.90;;;;;;5063740;28;20733;-64
2023/05/19 07:31:25;;;;;;;;;;;12.60;99.90;;;;;;5059867;28;20416;-64
2023/05/19 07:33:57;;;;;;;;;;;12.60;99.90;;;;;;5058421;28;19932;-65
2023/05/19 07:36:28;;;;;;;;;;;12.60;99.90;;;;;;5057846;28;19929;-64
2023/05/19 07:39:01;;;;;;;;;;;12.60;99.90;;;;;;5063691;28;19928;-64
2023/05/19 07:41:27;;;;;;;;;;;12.70;99.90;;;;;;5059506;28;19960;-64
2023/05/19 07:43:59;;;;;;;;;;;12.70;99.90;;;;;;5065956;28;19924;-64
2023/05/19 07:46:31;;;;;;;;;;;12.70;99.90;;;;;;5062387;28;19928;-64
2023/05/19 07:49:03;;;;;;;;;;;12.80;99.90;;;;;;5062741;28;20031;-64
2023/05/19 07:51:35;;;;;;;;;;;12.80;99.90;;;;;;5059127;28;19932;-65
2023/05/19 07:54:07;;;;;;;;;;;12.90;99.90;;;;;;5068018;28;19924;-64
2023/05/19 07:56:38;;;;;;;;;;;13.00;99.90;;;;;;5057541;28;20401;-64
2023/05/19 07:59:10;;;;;;;;;;;13.10;99.90;;;;;;5063526;28;19925;-64
2023/05/19 08:01:42;;;;;;;;;;;13.20;99.90;;;;;;5058158;28;19928;-64
2023/05/19 08:04:14;;;;;;;;;;;13.30;99.90;;;;;;5062015;28;20392;-64
2023/05/19 08:06:45;;;;;;;;;;;13.40;99.90;;;;;;5061420;28;19965;-64
2023/05/19 08:09:17;;;;;;;;;;;13.50;99.90;;;;;;5063762;28;19932;-64
2023/05/19 08:11:49;;;;;;;;;;;13.60;99.90;;;;;;5064290;28;19944;-64
2023/05/19 08:14:21;;;;;;;;;;;13.70;99.90;;;;;;5064704;28;20408;-64
2023/05/19 08:16:53;;;;;;;;;;;13.70;99.90;;;;;;5057238;28;19925;-64
2023/05/19 08:19:20;;;;;;;;;;;13.80;99.90;;;;;;5055901;28;19935;-64
2023/05/19 08:21:51;;;;;;;;;;;13.90;99.90;;;;;;5054841;28;19928;-64
2023/05/19 08:24:23;;;;;;;;;;;13.90;99.90;;;;;;5054732;28;20467;-64
2023/05/19 08:26:55;;;;;;;;;;;13.90;99.90;;;;;;5061526;28;19930;-65
2023/05/19 08:29:21;;;;;;;;;;;13.90;99.90;;;;;;5069323;28;20465;-64
2023/05/19 08:31:53;;;;;;;;;;;13.80;99.90;;;;;;5062871;28;19924;-64
2023/05/19 08:34:26;;;;;;;;;;;13.90;99.90;;;;;;5064148;28;19929;-65
2023/05/19 08:36:56;;;;;;;;;;;13.90;99.90;;;;;;5062713;28;20403;-64
2023/05/19 08:39:28;;;;;;;;;;;14.00;99.90;;;;;;5062348;28;20027;-65
2023/05/19 08:42:00;;;;;;;;;;;14.10;99.90;;;;;;5062925;28;20306;-64
2023/05/19 08:44:32;;;;;;;;;;;14.10;99.90;;;;;;5058193;28;19935;-64
2023/05/19 08:47:05;;;;;;;;;;;14.10;99.90;;;;;;5057658;28;19925;-64
2023/05/19 08:49:42;;;;;;;;;;;13.90;99.90;;;;;;5053796;28;20631;-64
2023/05/19 08:52:30;;;;;;;;;;;13.70;99.90;;;;;;5060029;28;19928;-64
2023/05/19 08:55:03;;;;;;;;;;;13.50;99.90;;;;;;5068935;28;19928;-64
2023/05/19 08:57:35;;;;;;;;;;;13.30;99.90;;;;;;5064647;28;19933;-65
2023/05/19 09:00:13;;;;;;;;;;;13.20;99.90;;;;;;5065831;28;19935;-64
2023/05/19 09:02:46;;;;;;;;;;;13.20;99.90;;;;;;5065464;28;19931;-64
2023/05/19 09:05:18;;;;;;;;;;;13.10;99.90;;;;;;5061637;28;19925;-65
2023/05/19 09:07:49;;;;;;;;;;;13.10;99.90;;;;;;5056613;28;20329;-64
2023/05/19 09:10:16;;;;;;;;;;;13.10;99.90;;;;;;5053182;28;19925;-64
2023/05/19 09:12:48;;;;;;;;;;;13.00;99.90;;;;;;5052191;28;20304;-64
2023/05/19 09:15:17;;;;;;;;;;;12.90;99.90;;;;;;5056289;28;20396;-64
2023/05/19 09:17:49;;;;;;;;;;;12.90;99.90;;;;;;5065887;28;20404;-64
2023/05/19 09:20:21;;;;;;;;;;;12.90;99.90;;;;;;5065960;28;19936;-64
2023/05/19 09:22:53;;;;;;;;;;;12.90;99.90;;;;;;5064944;28;19924;-64
2023/05/19 09:25:25;;;;;;;;;;;13.00;99.90;;;;;;5063214;28;19936;-64
2023/05/19 09:27:57;;;;;;;;;;;13.20;99.90;;;;;;5060477;28;19925;-65
2023/05/19 09:30:23;;;;;;;;;;;13.30;99.90;;;;;;5060230;28;20057;-64
2023/05/19 09:32:55;;;;;;;;;;;13.50;99.90;;;;;;5063477;28;19925;-64
2023/05/19 09:35:22;;;;;;;;;;;13.60;99.90;;;;;;5064713;28;19936;-64
2023/05/19 09:37:54;;;;;;;;;;;13.60;99.90;;;;;;5063147;28;19935;-64
2023/05/19 09:40:29;;;;;;;;;;;13.50;99.90;;;;;;5068858;28;19936;-64
2023/05/19 09:43:03;;;;;;;;;;;13.50;99.90;;;;;;5060976;28;19931;-64
2023/05/19 09:45:35;;;;;;;;;;;13.40;99.90;;;;;;5066003;28;19931;-64
2023/05/19 09:48:07;;;;;;;;;;;13.30;99.90;;;;;;5062334;28;19931;-65
2023/05/19 09:50:39;;;;;;;;;;;13.30;99.90;;;;;;5066060;28;19924;-64
2023/05/19 09:53:05;;;;;;;;;;;13.30;99.90;;;;;;5062573;28;20039;-64
2023/05/19 09:55:37;;;;;;;;;;;13.30;99.90;;;;;;5059885;28;20032;-64
2023/05/19 09:58:05;;;;;;;;;;;13.30;99.90;;;;;;5065266;28;19932;-65
2023/05/19 10:00:37;;;;;;;;;;;13.30;99.90;;;;;;5066568;28;19932;-65
2023/05/19 10:03:10;;;;;;;;;;;13.30;99.90;;;;;;5063205;28;19928;-64
2023/05/19 10:05:42;;;;;;;;;;;13.50;99.90;;;;;;5063410;28;20274;-64
2023/05/19 10:08:16;;;;;;;;;;;13.70;99.90;;;;;;5066056;28;20581;-64
2023/05/19 10:10:48;;;;;;;;;;;13.90;99.90;;;;;;5065337;28;20456;-65
2023/05/19 10:13:20;;;;;;;;;;;14.10;99.90;;;;;;5064668;28;20408;-65
2023/05/19 10:15:52;;;;;;;;;;;14.30;99.90;;;;;;5066007;28;20408;-64
2023/05/19 10:18:25;;;;;;;;;;;14.40;99.90;;;;;;5063855;28;19929;-64
2023/05/19 10:20:52;;;;;;;;;;;14.50;99.90;;;;;;5064026;28;19929;-64
2023/05/19 10:23:25;;;;;;;;;;;14.50;99.90;;;;;;5064555;28;20452;-64
2023/05/19 10:25:58;;;;;;;;;;;14.70;99.90;;;;;;5064001;28;19925;-66
2023/05/19 10:28:38;;;;;;;;;;;14.80;99.90;;;;;;5063399;28;19936;-64
2023/05/19 10:31:12;;;;;;;;;;;14.80;99.90;;;;;;5057313;28;19931;-64
2023/05/19 10:33:50;;;;;;;;;;;14.80;99.90;;;;;;5061547;28;20455;-64
2023/05/19 10:36:21;;;;;;;;;;;14.80;99.90;;;;;;5066008;28;20053;-64
2023/05/19 10:39:04;;;;;;;;;;;14.80;99.90;;;;;;5064682;28;19924;-64
2023/05/19 10:41:55;;;;;;;;;;;14.70;99.90;;;;;;5064497;28;20408;-64
2023/05/19 10:44:33;;;;;;;;;;;14.70;99.90;;;;;;5063213;28;19952;-65
2023/05/19 10:47:06;;;;;;;;;;;14.70;99.90;;;;;;5064205;28;19928;-64
2023/05/19 10:49:38;;;;;;;;;;;14.70;99.90;;;;;;5067465;28;20305;-64
2023/05/19 10:52:18;;;;;;;;;;;14.60;99.90;;;;;;5063700;28;20442;-64
2023/05/19 10:54:50;;;;;;;;;;;14.50;99.90;;;;;;5063403;28;20015;-64
2023/05/19 10:57:17;;;;;;;;;;;14.50;99.90;;;;;;5062509;28;19924;-64
2023/05/19 10:59:44;;;;;;;;;;;14.50;99.90;;;;;;5065466;28;20311;-64
2023/05/19 11:02:34;;;;;;;;;;;14.60;99.90;;;;;;5066519;28;19982;-64
2023/05/19 11:05:10;;;;;;;;;;;14.60;99.90;;;;;;5066541;28;19932;-64
2023/05/19 11:07:43;;;;;;;;;;;14.50;99.90;;;;;;5066823;28;20434;-64
2023/05/19 11:10:21;;;;;;;;;;;14.50;99.90;;;;;;5066210;28;19924;-64
2023/05/19 11:12:55;;;;;;;;;;;14.50;99.90;;;;;;5061404;28;19924;-65
2023/05/19 11:15:27;;;;;;;;;;;14.50;99.90;;;;;;5067040;28;20262;-65
2023/05/19 11:18:00;;;;;;;;;;;14.50;99.90;;;;;;5064604;28;19932;-65
2023/05/19 11:20:35;;;;;;;;;;;14.50;99.90;;;;;;5059642;28;19925;-65
2023/05/19 11:23:16;;;;;;;;;;;14.50;99.90;;;;;;5065948;28;20392;-65
2023/05/19 11:25:49;;;;;;;;;;;14.50;99.90;;;;;;5062237;28;20405;-65
2023/05/19 11:28:26;;;;;;;;;;;14.50;99.90;;;;;;5065874;28;19975;-65
2023/05/19 11:31:00;;;;;;;;;;;14.50;99.90;;;;;;5065724;28;19931;-65
2023/05/19 11:33:32;;;;;;;;;;;14.40;99.90;;;;;;5079764;28;19932;-65
2023/05/19 11:36:05;;;;;;;;;;;14.40;99.90;;;;;;5069397;28;19968;-65
2023/05/19 11:38:36;;;;;;;;;;;14.30;99.90;;;;;;5067811;28;19968;-65
2023/05/19 11:41:08;;;;;;;;;;;14.30;99.90;;;;;;5063688;28;20513;-65
2023/05/19 11:43:40;;;;;;;;;;;14.30;99.90;;;;;;5058339;28;19939;-65
2023/05/19 11:46:12;;;;;;;;;;;14.20;99.90;;;;;;5068161;28;19924;-65
2023/05/19 11:48:45;;;;;;;;;;;14.20;99.90;;;;;;5062779;28;19963;-65
2023/05/19 11:51:12;;;;;;;;;;;14.30;99.90;;;;;;5064789;28;19933;-65
2023/05/19 11:53:39;;;;;;;;;;;14.30;99.90;;;;;;5066072;28;19932;-65
2023/05/19 11:56:11;;;;;;;;;;;14.20;99.90;;;;;;5065099;28;20285;-65
2023/05/19 11:58:37;;;;;;;;;;;14.20;99.90;;;;;;5062870;28;20332;-65
2023/05/19 12:01:09;;;;;;;;;;;14.20;99.90;;;;;;5068139;28;19924;-65
2023/05/19 12:03:36;;;;;;;;;;;14.20;99.90;;;;;;5058873;28;19931;-65
2023/05/19 12:06:09;;;;;;;;;;;14.10;99.90;;;;;;5062765;28;19929;-65
2023/05/19 12:08:41;;;;;;;;;;;14.10;99.90;;;;;;5062221;28;20419;-65
2023/05/19 12:11:12;;;;;;;;;;;14.10;99.90;;;;;;5065100;28;19975;-65
2023/05/19 12:13:40;;;;;;;;;;;14.00;99.90;;;;;;5063597;28;20517;-65
2023/05/19 12:16:11;;;;;;;;;;;13.90;99.90;;;;;;5063358;28;19928;-65
2023/05/19 12:18:43;;;;;;;;;;;13.90;99.90;;;;;;5066700;28;20389;-64
2023/05/19 12:21:15;;;;;;;;;;;13.90;99.90;;;;;;5069343;28;19935;-65
2023/05/19 12:23:48;;;;;;;;;;;13.90;99.90;;;;;;5062369;28;20023;-65
2023/05/19 12:26:21;;;;;;;;;;;13.90;99.90;;;;;;5065124;28;19925;-65
2023/05/19 12:28:53;;;;;;;;;;;14.00;99.90;;;;;;5063286;28;20786;-65
2023/05/19 12:31:25;;;;;;;;;;;14.00;99.90;;;;;;5057962;28;19929;-65
2023/05/19 12:33:57;;;;;;;;;;;14.00;99.90;;;;;;5057908;28;19998;-65
2023/05/19 12:36:30;;;;;;;;;;;14.10;99.90;;;;;;5055434;28;19936;-65
2023/05/19 12:38:57;;;;;;;;;;;14.10;99.90;;;;;;5060844;28;20303;-65
2023/05/19 12:41:29;;;;;;;;;;;14.10;99.90;;;;;;5063401;28;19929;-65
2023/05/19 12:44:00;;;;;;;;;;;14.20;99.90;;;;;;5065214;28;19929;-65
2023/05/19 12:46:32;;;;;;;;;;;14.20;99.90;;;;;;5061468;28;19929;-65
2023/05/19 12:49:04;;;;;;;;;;;14.30;99.90;;;;;;5063770;28;19924;-65
2023/05/19 12:51:36;;;;;;;;;;;14.40;99.90;;;;;;5058716;28;19925;-65
2023/05/19 12:54:08;;;;;;;;;;;14.40;99.90;;;;;;5053057;28;20304;-65
2023/05/19 12:56:48;;;;;;;;;;;14.40;99.90;;;;;;5063370;28;19931;-65
2023/05/19 12:59:20;;;;;;;;;;;14.30;99.90;;;;;;5063782;28;19925;-65
2023/05/19 13:01:56;;;;;;;;;;;14.20;99.90;;;;;;5079766;28;19932;-65
2023/05/19 13:04:23;;;;;;;;;;;14.20;99.90;;;;;;5063505;28;20031;-65
2023/05/19 13:06:55;;;;;;;;;;;14.20;99.90;;;;;;5066844;28;19924;-65
2023/05/19 13:09:27;;;;;;;;;;;14.20;99.90;;;;;;5067024;28;19931;-65
2023/05/19 13:11:59;;;;;;;;;;;14.30;99.90;;;;;;5067308;28;19971;-65
2023/05/19 13:14:26;;;;;;;;;;;14.30;99.90;;;;;;5068047;28;19934;-66
2023/05/19 13:16:58;;;;;;;;;;;14.30;99.90;;;;;;5066729;28;19924;-66
2023/05/19 13:19:30;;;;;;;;;;;14.30;99.90;;;;;;5065905;28;20450;-65
2023/05/19 13:22:02;;;;;;;;;;;14.30;99.90;;;;;;5061439;28;19960;-66
2023/05/19 13:24:34;;;;;;;;;;;14.40;99.90;;;;;;5067784;28;19931;-66
2023/05/19 13:27:05;;;;;;;;;;;14.40;99.90;;;;;;5065858;28;19964;-64
2023/05/19 13:29:32;;;;;;;;;;;14.40;99.90;;;;;;5068133;28;20450;-64
2023/05/19 13:31:59;;;;;;;;;;;14.40;99.90;;;;;;5064362;28;20428;-64
2023/05/19 13:34:31;;;;;;;;;;;14.40;99.90;;;;;;5063366;28;19925;-64
2023/05/19 13:37:03;;;;;;;;;;;14.40;99.90;;;;;;5063581;28;19939;-64
2023/05/19 13:39:35;;;;;;;;;;;14.60;99.90;;;;;;5059637;28;19924;-64
2023/05/19 13:42:07;;;;;;;;;;;14.60;99.90;;;;;;5057598;28;20018;-64
2023/05/19 13:44:38;;;;;;;;;;;14.70;99.90;;;;;;5064014;28;19929;-65
2023/05/19 13:47:10;;;;;;;;;;;14.70;99.90;;;;;;5060969;28;19929;-64
2023/05/19 13:49:42;;;;;;;;;;;14.70;99.90;;;;;;5061797;28;20300;-64
2023/05/19 13:52:14;;;;;;;;;;;14.70;99.90;;;;;;5062158;28;19929;-64
2023/05/19 13:54:40;;;;;;;;;;;14.80;99.90;;;;;;5063880;28;19929;-64
2023/05/19 13:57:12;;;;;;;;;;;14.90;99.90;;;;;;5062454;28;19929;-64
2023/05/19 13:59:45;;;;;;;;;;;15.00;99.90;;;;;;5063473;28;19924;-64
2023/05/19 14:02:17;;;;;;;;;;;15.10;99.90;;;;;;5057795;28;19955;-64
2023/05/19 14:04:49;;;;;;;;;;;15.10;99.90;;;;;;5047630;28;20304;-64
2023/05/19 14:07:21;;;;;;;;;;;15.30;99.90;;;;;;5059556;28;20016;-64
2023/05/19 14:09:49;;;;;;;;;;;15.40;99.90;;;;;;5058120;28;19932;-64
2023/05/19 14:12:16;;;;;;;;;;;15.40;99.90;;;;;;5066260;28;20367;-64
2023/05/19 14:14:48;;;;;;;;;;;15.40;99.90;;;;;;5064480;28;20021;-64
2023/05/19 14:17:20;;;;;;;;;;;15.50;99.90;;;;;;5064549;28;20489;-64
2023/05/19 14:19:52;;;;;;;;;;;15.70;99.90;;;;;;5063003;28;19928;-64
2023/05/19 14:22:23;;;;;;;;;;;15.80;99.90;;;;;;5067608;28;19951;-64
2023/05/19 14:24:55;;;;;;;;;;;15.80;99.90;;;;;;5065797;28;19930;-64
2023/05/19 14:27:27;;;;;;;;;;;15.80;99.90;;;;;;5066996;28;19968;-64
2023/05/19 14:29:58;;;;;;;;;;;16.00;99.90;;;;;;5068774;28;19945;-64
2023/05/19 14:32:30;;;;;;;;;;;16.10;99.90;;;;;;5071149;28;19928;-63
2023/05/19 14:34:57;;;;;;;;;;;16.30;99.90;;;;;;5068807;28;20023;-64
2023/05/19 14:37:30;;;;;;;;;;;16.30;99.90;;;;;;5062812;28;19947;-64
2023/05/19 14:40:03;;;;;;;;;;;16.30;99.90;;;;;;5065598;28;19925;-64
2023/05/19 14:42:30;;;;;;;;;;;16.30;99.90;;;;;;5063858;28;20614;-64
2023/05/19 14:45:02;;;;;;;;;;;16.40;99.90;;;;;;5063956;28;19932;-65
2023/05/19 14:47:33;;;;;;;;;;;16.40;99.90;;;;;;5068885;28;19939;-64